createdAt,value
2018-11-23T00:00:00.240Z,27.22
2018-11-23T00:00:31.434Z,28.32
2018-11-23T00:01:02.587Z,26.93
2018-11-23T00:01:33.692Z,27.30
2018-11-23T00:02:04.793Z,25.32
2018-11-23T00:02:35.889Z,28.92
2018-11-23T00:03:07.018Z,28.73
2018-11-23T00:03:41.182Z,28.30
2018-11-23T00:04:12.322Z,30.10
2018-11-23T00:04:43.438Z,29.40
2018-11-23T00:05:14.547Z,31.40
2018-11-23T00:05:45.687Z,30.20
2018-11-23T00:06:16.823Z,26.85
2018-11-23T00:06:47.923Z,30.43
2018-11-23T00:07:19.755Z,30.02
2018-11-23T00:07:51.500Z,25.88
2018-11-23T00:08:22.603Z,30.90
2018-11-23T00:08:54.352Z,28.77
2018-11-23T00:09:26.039Z,29.05
2018-11-23T00:09:57.151Z,27.93
2018-11-23T00:10:29.049Z,30.48
2018-11-23T00:11:00.172Z,29.42
2018-11-23T00:11:31.451Z,31.27
2018-11-23T00:12:02.598Z,27.80
2018-11-23T00:12:33.721Z,30.15
2018-11-23T00:13:04.865Z,30.90
2018-11-23T00:13:35.983Z,27.32
2018-11-23T00:14:07.186Z,30.25
2018-11-23T00:14:38.310Z,28.50
2018-11-23T00:15:09.443Z,29.75
2018-11-23T00:15:40.603Z,28.40
2018-11-23T00:16:11.723Z,31.07
2018-11-23T00:16:42.861Z,27.22
2018-11-23T00:17:13.961Z,29.40
2018-11-23T00:17:45.774Z,29.42
2018-11-23T00:18:17.462Z,29.32
2018-11-23T00:18:48.562Z,27.02
2018-11-23T00:19:19.661Z,29.23
2018-11-23T00:19:50.766Z,31.23
2018-11-23T00:20:22.787Z,30.75
2018-11-23T00:20:53.894Z,25.85
2018-11-23T00:21:24.998Z,26.15
2018-11-23T00:21:56.148Z,25.75
2018-11-23T00:22:27.272Z,30.37
2018-11-23T00:22:58.382Z,29.50
2018-11-23T00:23:29.514Z,27.55
2018-11-23T00:24:00.621Z,28.17
2018-11-23T00:24:31.721Z,29.98
2018-11-23T00:25:02.847Z,26.17
2018-11-23T00:25:33.948Z,27.25
2018-11-23T00:26:05.061Z,25.80
2018-11-23T00:26:36.199Z,26.30
2018-11-23T00:27:07.362Z,25.68
2018-11-23T00:27:38.475Z,26.52
2018-11-23T00:28:09.588Z,25.32
2018-11-23T00:28:40.683Z,26.75
2018-11-23T00:29:11.788Z,26.75
2018-11-23T00:29:43.531Z,27.07
2018-11-23T00:30:14.663Z,24.70
2018-11-23T00:30:45.768Z,26.30
2018-11-23T00:31:17.511Z,23.85
2018-11-23T00:31:48.647Z,23.65
2018-11-23T00:32:19.770Z,24.80
2018-11-23T00:32:50.883Z,25.95
2018-11-23T00:33:21.982Z,26.02
2018-11-23T00:33:53.923Z,26.33
2018-11-23T00:34:25.339Z,24.85
2018-11-23T00:34:56.477Z,23.32
2018-11-23T00:35:27.572Z,26.50
2018-11-23T00:35:58.680Z,28.42
2018-11-23T00:36:29.774Z,26.75
2018-11-23T00:37:00.910Z,24.45
2018-11-23T00:37:32.277Z,24.50
2018-11-23T00:38:03.411Z,24.85
2018-11-23T00:38:34.507Z,23.85
2018-11-23T00:39:06.311Z,25.90
2018-11-23T00:39:37.407Z,25.52
2018-11-23T00:40:08.529Z,23.75
2018-11-23T00:40:39.641Z,22.77
2018-11-23T00:41:10.796Z,25.25
2018-11-23T00:41:41.930Z,23.02
2018-11-23T00:42:13.106Z,25.80
2018-11-23T00:42:45.267Z,23.57
2018-11-23T00:43:16.402Z,23.22
2018-11-23T00:43:47.613Z,24.23
2018-11-23T00:44:18.715Z,23.75
2018-11-23T00:44:49.811Z,23.42
2018-11-23T00:45:20.977Z,24.27
2018-11-23T00:45:52.123Z,22.45
2018-11-23T00:46:23.299Z,25.15
2018-11-23T00:46:54.545Z,24.77
2018-11-23T00:47:25.675Z,23.73
2018-11-23T00:47:56.803Z,23.55
2018-11-23T00:48:27.915Z,23.02
2018-11-23T00:48:59.030Z,22.67
2018-11-23T00:49:30.195Z,22.07
2018-11-23T00:50:01.895Z,22.13
2018-11-23T00:50:34.061Z,22.60
2018-11-23T00:51:06.071Z,23.62
2018-11-23T00:51:37.358Z,24.02
2018-11-23T00:52:08.471Z,25.82
2018-11-23T00:52:39.567Z,24.27
2018-11-23T00:53:10.694Z,23.52
2018-11-23T00:53:41.802Z,22.15
2018-11-23T00:54:13.453Z,23.22
2018-11-23T00:54:44.590Z,23.05
2018-11-23T00:55:15.691Z,24.40
2018-11-23T00:55:46.796Z,21.42
2018-11-23T00:56:17.900Z,22.60
2018-11-23T00:56:49.103Z,21.42
2018-11-23T00:57:20.198Z,22.02
2018-11-23T00:57:52.205Z,22.00
2018-11-23T00:58:23.314Z,24.07
2018-11-23T00:58:54.428Z,25.35
2018-11-23T00:59:25.531Z,22.82
2018-11-23T00:59:56.657Z,21.80
2018-11-23T01:00:27.783Z,23.90
2018-11-23T01:00:58.920Z,24.85
2018-11-23T01:01:31.090Z,24.45
2018-11-23T01:02:02.261Z,22.22
2018-11-23T01:02:33.377Z,24.40
2018-11-23T01:03:04.527Z,24.23
2018-11-23T01:03:35.625Z,26.12
2018-11-23T01:04:06.724Z,23.12
2018-11-23T01:04:37.822Z,22.52
2018-11-23T01:05:09.598Z,25.82
2018-11-23T01:05:40.791Z,21.87
2018-11-23T01:06:11.890Z,21.95
2018-11-23T01:06:43.043Z,21.20
2018-11-23T01:07:14.185Z,22.75
2018-11-23T01:07:45.288Z,22.37
2018-11-23T01:08:16.432Z,21.90
2018-11-23T01:08:47.542Z,23.20
2018-11-23T01:09:18.702Z,25.00
2018-11-23T01:09:50.981Z,23.38
2018-11-23T01:10:22.084Z,22.60
2018-11-23T01:10:53.248Z,23.35
2018-11-23T01:11:24.376Z,23.05
2018-11-23T01:11:55.630Z,23.32
2018-11-23T01:12:27.813Z,22.13
2018-11-23T01:12:58.989Z,21.27
2018-11-23T01:13:30.118Z,25.40
2018-11-23T01:14:01.235Z,20.82
2018-11-23T01:14:32.359Z,22.80
2018-11-23T01:15:03.464Z,23.05
2018-11-23T01:15:35.254Z,22.80
2018-11-23T01:16:06.350Z,21.80
2018-11-23T01:16:37.442Z,24.90
2018-11-23T01:17:08.587Z,24.20
2018-11-23T01:17:39.680Z,22.60
2018-11-23T01:18:10.775Z,24.72
2018-11-23T01:18:41.870Z,23.95
2018-11-23T01:19:12.958Z,23.42
2018-11-23T01:19:44.054Z,22.10
2018-11-23T01:20:15.168Z,23.90
2018-11-23T01:20:46.272Z,23.10
2018-11-23T01:21:17.372Z,21.57
2018-11-23T01:21:48.460Z,21.77
2018-11-23T01:22:19.601Z,21.68
2018-11-23T01:22:50.702Z,24.82
2018-11-23T01:23:21.815Z,21.37
2018-11-23T01:23:52.921Z,21.25
2018-11-23T01:24:24.089Z,21.70
2018-11-23T01:24:55.226Z,23.83
2018-11-23T01:25:26.322Z,21.97
2018-11-23T01:25:57.435Z,20.55
2018-11-23T01:26:28.539Z,22.75
2018-11-23T01:26:59.636Z,22.10
2018-11-23T01:27:30.733Z,21.93
2018-11-23T01:28:01.833Z,21.02
2018-11-23T01:28:32.972Z,21.97
2018-11-23T01:29:04.076Z,24.50
2018-11-23T01:29:35.180Z,23.57
2018-11-23T01:30:06.291Z,22.67
2018-11-23T01:30:37.389Z,21.07
2018-11-23T01:31:08.536Z,21.15
2018-11-23T01:31:39.649Z,20.72
2018-11-23T01:32:10.745Z,20.70
2018-11-23T01:32:41.850Z,22.67
2018-11-23T01:33:12.959Z,20.48
2018-11-23T01:33:44.060Z,19.85
2018-11-23T01:34:15.164Z,19.60
2018-11-23T01:34:46.292Z,21.02
2018-11-23T01:35:17.388Z,20.50
2018-11-23T01:35:48.501Z,21.00
2018-11-23T01:36:19.595Z,23.07
2018-11-23T01:36:50.697Z,23.40
2018-11-23T01:37:21.793Z,20.27
2018-11-23T01:37:52.883Z,20.12
2018-11-23T01:38:23.976Z,21.15
2018-11-23T01:38:55.067Z,20.62
2018-11-23T01:39:26.167Z,21.27
2018-11-23T01:39:57.303Z,22.02
2018-11-23T01:40:28.416Z,23.02
2018-11-23T01:40:59.560Z,23.00
2018-11-23T01:41:30.699Z,19.80
2018-11-23T01:42:01.847Z,21.23
2018-11-23T01:42:32.954Z,22.02
2018-11-23T01:43:04.054Z,22.13
2018-11-23T01:43:35.149Z,20.43
2018-11-23T01:44:06.256Z,19.85
2018-11-23T01:44:37.359Z,19.73
2018-11-23T01:45:08.467Z,20.55
2018-11-23T01:45:39.573Z,19.23
2018-11-23T01:46:10.677Z,21.35
2018-11-23T01:46:41.781Z,20.02
2018-11-23T01:47:12.910Z,20.48
2018-11-23T01:47:44.096Z,20.35
2018-11-23T01:48:15.279Z,19.70
2018-11-23T01:48:46.390Z,20.00
2018-11-23T01:49:17.524Z,19.52
2018-11-23T01:49:48.652Z,20.00
2018-11-23T01:50:19.852Z,19.82
2018-11-23T01:50:50.957Z,19.50
2018-11-23T01:51:22.070Z,20.62
2018-11-23T01:51:53.205Z,23.00
2018-11-23T01:52:24.336Z,22.52
2018-11-23T01:52:55.431Z,22.02
2018-11-23T01:53:26.529Z,21.50
2018-11-23T01:53:58.543Z,21.35
2018-11-23T01:54:29.643Z,23.55
2018-11-23T01:55:00.748Z,21.87
2018-11-23T01:55:32.029Z,21.17
2018-11-23T01:56:03.142Z,21.73
2018-11-23T01:56:34.239Z,22.30
2018-11-23T01:57:05.345Z,21.62
2018-11-23T01:57:36.453Z,23.32
2018-11-23T01:58:08.268Z,21.80
2018-11-23T01:58:39.363Z,23.00
2018-11-23T01:59:10.460Z,23.40
2018-11-23T01:59:41.642Z,22.00
2018-11-23T02:00:12.751Z,21.97
2018-11-23T02:00:43.886Z,21.17
2018-11-23T02:01:14.992Z,21.23
2018-11-23T02:01:46.101Z,23.07
2018-11-23T02:02:17.205Z,21.12
2018-11-23T02:02:48.332Z,20.88
2018-11-23T02:03:19.434Z,21.60
2018-11-23T02:03:50.580Z,21.85
2018-11-23T02:04:21.727Z,21.10
2018-11-23T02:04:52.832Z,21.25
2018-11-23T02:05:23.972Z,22.35
2018-11-23T02:05:55.071Z,23.18
2018-11-23T02:06:26.726Z,20.48
2018-11-23T02:06:57.858Z,22.10
2018-11-23T02:07:28.962Z,21.45
2018-11-23T02:08:00.063Z,21.33
2018-11-23T02:08:31.155Z,22.75
2018-11-23T02:09:02.300Z,21.00
2018-11-23T02:09:33.413Z,22.13
2018-11-23T02:10:04.541Z,21.40
2018-11-23T02:10:35.748Z,22.32
2018-11-23T02:11:06.847Z,21.48
2018-11-23T02:11:38.071Z,21.82
2018-11-23T02:12:09.099Z,21.80
2018-11-23T02:12:40.201Z,22.48
2018-11-23T02:13:11.303Z,21.10
2018-11-23T02:13:42.421Z,20.25
2018-11-23T02:14:13.576Z,22.27
2018-11-23T02:14:44.709Z,21.68
2018-11-23T02:15:15.815Z,20.75
2018-11-23T02:15:46.912Z,21.90
2018-11-23T02:16:18.004Z,23.83
2018-11-23T02:16:49.106Z,20.68
2018-11-23T02:17:20.329Z,22.60
2018-11-23T02:17:51.432Z,22.42
2018-11-23T02:18:22.527Z,21.97
2018-11-23T02:18:57.241Z,21.45
2018-11-23T02:19:28.376Z,19.73
2018-11-23T02:19:59.481Z,19.42
2018-11-23T02:20:30.580Z,22.90
2018-11-23T02:21:01.688Z,22.32
2018-11-23T02:21:32.927Z,20.48
2018-11-23T02:22:04.034Z,23.57
2018-11-23T02:22:35.126Z,23.32
2018-11-23T02:23:06.240Z,21.70
2018-11-23T02:23:38.123Z,22.15
2018-11-23T02:24:09.226Z,22.95
2018-11-23T02:24:40.371Z,21.35
2018-11-23T02:25:11.517Z,22.15
2018-11-23T02:25:42.624Z,21.70
2018-11-23T02:26:13.736Z,22.55
2018-11-23T02:26:44.868Z,22.10
2018-11-23T02:27:15.973Z,25.55
2018-11-23T02:27:48.043Z,21.90
2018-11-23T02:28:19.143Z,22.70
2018-11-23T02:28:50.257Z,25.82
2018-11-23T02:29:21.363Z,24.18
2018-11-23T02:29:52.468Z,23.25
2018-11-23T02:30:23.602Z,23.27
2018-11-23T02:30:54.707Z,23.00
2018-11-23T02:31:25.808Z,23.15
2018-11-23T02:31:56.924Z,23.90
2018-11-23T02:32:28.052Z,21.87
2018-11-23T02:32:59.167Z,23.32
2018-11-23T02:33:30.286Z,23.05
2018-11-23T02:34:01.398Z,23.95
2018-11-23T02:34:32.510Z,24.77
2018-11-23T02:35:03.613Z,22.15
2018-11-23T02:35:34.767Z,23.30
2018-11-23T02:36:05.870Z,23.27
2018-11-23T02:36:36.987Z,21.82
2018-11-23T02:37:08.088Z,23.70
2018-11-23T02:37:39.195Z,21.85
2018-11-23T02:38:10.293Z,22.15
2018-11-23T02:38:41.396Z,23.52
2018-11-23T02:39:12.515Z,24.77
2018-11-23T02:39:43.622Z,22.73
2018-11-23T02:40:14.732Z,23.65
2018-11-23T02:40:45.876Z,23.80
2018-11-23T02:41:17.785Z,25.00
2018-11-23T02:41:48.902Z,21.95
2018-11-23T02:42:20.011Z,24.70
2018-11-23T02:42:51.123Z,23.07
2018-11-23T02:43:22.235Z,22.00
2018-11-23T02:43:53.336Z,23.02
2018-11-23T02:44:24.441Z,23.67
2018-11-23T02:44:55.548Z,23.22
2018-11-23T02:45:27.721Z,23.67
2018-11-23T02:45:58.860Z,22.70
2018-11-23T02:46:29.959Z,22.05
2018-11-23T02:47:01.064Z,22.93
2018-11-23T02:47:32.165Z,21.65
2018-11-23T02:48:03.279Z,22.82
2018-11-23T02:48:34.382Z,22.70
2018-11-23T02:49:05.495Z,25.20
2018-11-23T02:49:36.639Z,23.22
2018-11-23T02:50:07.747Z,23.80
2018-11-23T02:50:38.844Z,22.90
2018-11-23T02:51:10.742Z,21.97
2018-11-23T02:51:41.831Z,23.60
2018-11-23T02:52:12.937Z,21.68
2018-11-23T02:52:44.037Z,23.25
2018-11-23T02:53:15.153Z,24.00
2018-11-23T02:53:46.272Z,24.65
2018-11-23T02:54:17.362Z,22.27
2018-11-23T02:54:48.462Z,23.73
2018-11-23T02:55:21.117Z,27.75
2018-11-23T02:55:52.217Z,22.95
2018-11-23T02:56:23.355Z,24.02
2018-11-23T02:56:54.577Z,23.95
2018-11-23T02:57:25.677Z,24.12
2018-11-23T02:57:56.775Z,23.73
2018-11-23T02:58:27.922Z,21.75
2018-11-23T02:58:59.026Z,25.32
2018-11-23T02:59:30.130Z,24.10
2018-11-23T03:00:01.233Z,23.73
2018-11-23T03:00:32.331Z,23.75
2018-11-23T03:01:03.513Z,22.17
2018-11-23T03:01:34.620Z,23.42
2018-11-23T03:02:05.725Z,23.10
2018-11-23T03:02:36.823Z,22.90
2018-11-23T03:03:07.926Z,19.82
2018-11-23T03:03:39.064Z,19.75
2018-11-23T03:04:10.167Z,20.60
2018-11-23T03:04:41.272Z,18.80
2018-11-23T03:05:12.423Z,20.97
2018-11-23T03:05:43.519Z,20.82
2018-11-23T03:06:14.618Z,18.60
2018-11-23T03:06:45.719Z,18.10
2018-11-23T03:07:16.824Z,22.02
2018-11-23T03:07:47.982Z,19.40
2018-11-23T03:08:19.079Z,19.25
2018-11-23T03:08:50.173Z,19.05
2018-11-23T03:09:21.296Z,19.77
2018-11-23T03:09:52.402Z,21.33
2018-11-23T03:10:23.549Z,20.05
2018-11-23T03:10:54.693Z,22.02
2018-11-23T03:11:25.783Z,18.92
2018-11-23T03:11:56.948Z,21.75
2018-11-23T03:12:28.087Z,19.30
2018-11-23T03:12:59.226Z,19.17
2018-11-23T03:13:30.362Z,18.27
2018-11-23T03:14:01.502Z,18.05
2018-11-23T03:14:32.692Z,18.27
2018-11-23T03:15:03.840Z,17.10
2018-11-23T03:15:34.931Z,17.92
2018-11-23T03:16:06.139Z,19.45
2018-11-23T03:16:37.234Z,18.80
2018-11-23T03:17:08.383Z,20.55
2018-11-23T03:17:39.478Z,20.40
2018-11-23T03:18:10.583Z,20.12
2018-11-23T03:18:41.703Z,19.45
2018-11-23T03:19:12.833Z,20.52
2018-11-23T03:19:43.952Z,20.95
2018-11-23T03:20:15.059Z,21.20
2018-11-23T03:20:46.165Z,20.62
2018-11-23T03:21:17.264Z,21.82
2018-11-23T03:21:48.370Z,21.23
2018-11-23T03:22:19.480Z,22.40
2018-11-23T03:22:50.650Z,20.65
2018-11-23T03:23:21.754Z,20.55
2018-11-23T03:23:52.858Z,23.30
2018-11-23T03:24:23.988Z,21.33
2018-11-23T03:24:55.120Z,22.22
2018-11-23T03:25:26.247Z,21.68
2018-11-23T03:25:57.366Z,20.50
2018-11-23T03:26:28.470Z,21.95
2018-11-23T03:26:59.572Z,24.72
2018-11-23T03:27:30.676Z,21.75
2018-11-23T03:28:01.903Z,25.97
2018-11-23T03:28:33.051Z,22.87
2018-11-23T03:29:04.148Z,22.52
2018-11-23T03:29:35.253Z,21.60
2018-11-23T03:30:06.400Z,25.45
2018-11-23T03:30:37.571Z,22.52
2018-11-23T03:31:12.539Z,23.70
2018-11-23T03:31:39.900Z,23.52
2018-11-23T03:32:11.095Z,25.25
2018-11-23T03:32:42.200Z,24.77
2018-11-23T03:33:13.342Z,25.60
2018-11-23T03:33:44.538Z,25.82
2018-11-23T03:34:15.639Z,23.73
2018-11-23T03:34:46.730Z,24.23
2018-11-23T03:35:17.881Z,24.47
2018-11-23T03:35:48.997Z,26.27
2018-11-23T03:36:20.108Z,24.50
2018-11-23T03:36:51.198Z,26.57
2018-11-23T03:37:22.319Z,25.62
2018-11-23T03:37:53.535Z,23.83
2018-11-23T03:38:24.679Z,25.92
2018-11-23T03:38:55.783Z,25.48
2018-11-23T03:39:27.985Z,23.12
2018-11-23T03:39:58.101Z,24.25
2018-11-23T03:40:29.208Z,27.62
2018-11-23T03:41:00.326Z,28.52
2018-11-23T03:41:31.425Z,26.52
2018-11-23T03:42:02.523Z,29.90
2018-11-23T03:42:33.626Z,25.20
2018-11-23T03:43:04.760Z,23.87
2018-11-23T03:43:35.904Z,24.70
2018-11-23T03:44:07.012Z,27.55
2018-11-23T03:44:38.124Z,28.55
2018-11-23T03:45:09.263Z,28.90
2018-11-23T03:45:40.370Z,26.68
2018-11-23T03:46:11.481Z,27.98
2018-11-23T03:46:42.583Z,25.90
2018-11-23T03:47:13.703Z,28.17
2018-11-23T03:47:44.816Z,24.40
2018-11-23T03:48:15.919Z,25.25
2018-11-23T03:48:47.083Z,27.35
2018-11-23T03:49:18.179Z,26.73
2018-11-23T03:49:49.299Z,25.37
2018-11-23T03:50:20.387Z,30.27
2018-11-23T03:50:51.483Z,30.35
2018-11-23T03:51:22.580Z,31.40
2018-11-23T03:51:53.688Z,29.67
2018-11-23T03:52:24.855Z,31.23
2018-11-23T03:52:55.952Z,27.67
2018-11-23T03:53:27.052Z,26.93
2018-11-23T03:53:58.195Z,28.85
2018-11-23T03:54:29.291Z,30.95
2018-11-23T03:55:00.394Z,33.98
2018-11-23T03:55:31.532Z,34.63
2018-11-23T03:56:02.643Z,33.00
2018-11-23T03:56:33.751Z,31.93
2018-11-23T03:57:04.863Z,36.60
2018-11-23T03:57:35.989Z,33.65
2018-11-23T03:58:07.099Z,34.30
2018-11-23T03:58:38.231Z,33.85
2018-11-23T03:59:09.380Z,34.92
2018-11-23T03:59:40.475Z,32.65
2018-11-23T04:00:17.177Z,30.23
2018-11-23T04:00:42.747Z,31.93
2018-11-23T04:01:13.850Z,31.48
2018-11-23T04:01:44.951Z,32.08
2018-11-23T04:02:16.052Z,31.65
2018-11-23T04:02:47.142Z,32.73
2018-11-23T04:03:18.248Z,32.45
2018-11-23T04:03:49.350Z,33.90
2018-11-23T04:04:20.497Z,34.70
2018-11-23T04:04:51.598Z,37.93
2018-11-23T04:05:22.736Z,37.98
2018-11-23T04:05:53.847Z,35.78
2018-11-23T04:06:24.961Z,39.85
2018-11-23T04:06:56.114Z,39.35
2018-11-23T04:07:27.219Z,38.40
2018-11-23T04:07:58.377Z,41.63
2018-11-23T04:08:29.488Z,45.20
2018-11-23T04:09:00.623Z,44.60
2018-11-23T04:09:31.727Z,43.08
2018-11-23T04:10:02.838Z,46.30
2018-11-23T04:10:33.933Z,43.90
2018-11-23T04:11:05.054Z,41.08
2018-11-23T04:11:36.163Z,41.53
2018-11-23T04:12:07.256Z,43.60
2018-11-23T04:12:38.383Z,47.20
2018-11-23T04:13:09.523Z,43.92
2018-11-23T04:13:40.631Z,41.85
2018-11-23T04:14:11.730Z,43.68
2018-11-23T04:14:42.871Z,40.60
2018-11-23T04:15:13.970Z,38.90
2018-11-23T04:15:45.081Z,45.38
2018-11-23T04:16:16.179Z,44.42
2018-11-23T04:16:47.280Z,45.30
2018-11-23T04:17:18.399Z,44.23
2018-11-23T04:17:49.507Z,42.83
2018-11-23T04:18:20.648Z,44.70
2018-11-23T04:18:51.766Z,44.67
2018-11-23T04:19:22.902Z,43.75
2018-11-23T04:19:54.010Z,49.08
2018-11-23T04:20:25.154Z,41.48
2018-11-23T04:20:56.259Z,40.03
2018-11-23T04:21:27.401Z,39.75
2018-11-23T04:21:58.508Z,41.33
2018-11-23T04:22:29.621Z,45.48
2018-11-23T04:23:00.727Z,39.90
2018-11-23T04:23:31.894Z,43.25
2018-11-23T04:24:03.015Z,46.60
2018-11-23T04:24:34.114Z,44.83
2018-11-23T04:25:05.208Z,45.45
2018-11-23T04:25:36.311Z,45.83
2018-11-23T04:26:07.507Z,42.75
2018-11-23T04:26:38.644Z,43.52
2018-11-23T04:27:09.754Z,45.58
2018-11-23T04:27:40.848Z,42.80
2018-11-23T04:28:11.995Z,49.35
2018-11-23T04:28:43.092Z,43.85
2018-11-23T04:29:14.268Z,45.90
2018-11-23T04:29:45.372Z,47.73
2018-11-23T04:30:16.471Z,50.92
2018-11-23T04:30:47.585Z,50.03
2018-11-23T04:31:18.693Z,49.83
2018-11-23T04:31:51.884Z,46.55
2018-11-23T04:32:22.997Z,45.35
2018-11-23T04:32:54.102Z,48.42
2018-11-23T04:33:25.358Z,45.75
2018-11-23T04:33:56.492Z,48.55
2018-11-23T04:34:27.602Z,48.48
2018-11-23T04:34:58.708Z,50.65
2018-11-23T04:35:29.810Z,50.03
2018-11-23T04:36:00.909Z,49.38
2018-11-23T04:36:32.013Z,44.00
2018-11-23T04:37:03.116Z,48.08
2018-11-23T04:37:34.213Z,46.10
2018-11-23T04:38:05.319Z,49.98
2018-11-23T04:38:36.467Z,53.70
2018-11-23T04:39:07.728Z,47.85
2018-11-23T04:39:38.835Z,55.28
2018-11-23T04:40:10.000Z,50.67
2018-11-23T04:40:41.103Z,48.75
2018-11-23T04:41:12.199Z,51.37
2018-11-23T04:41:46.510Z,56.35
2018-11-23T04:42:14.493Z,49.60
2018-11-23T04:42:45.638Z,49.13
2018-11-23T04:43:16.739Z,46.92
2018-11-23T04:43:47.848Z,51.73
2018-11-23T04:44:18.952Z,49.45
2018-11-23T04:44:50.967Z,51.70
2018-11-23T04:45:22.081Z,51.23
2018-11-23T04:45:53.203Z,48.20
2018-11-23T04:46:24.311Z,51.68
2018-11-23T04:46:55.444Z,46.85
2018-11-23T04:47:26.547Z,51.88
2018-11-23T04:47:57.651Z,47.30
2018-11-23T04:48:28.762Z,49.13
2018-11-23T04:49:00.644Z,52.38
2018-11-23T04:49:31.747Z,51.50
2018-11-23T04:50:02.851Z,50.75
2018-11-23T04:50:33.993Z,45.90
2018-11-23T04:51:05.108Z,46.95
2018-11-23T04:51:36.206Z,45.15
2018-11-23T04:52:07.303Z,49.40
2018-11-23T04:52:38.435Z,40.92
2018-11-23T04:53:11.275Z,44.30
2018-11-23T04:53:42.380Z,44.98
2018-11-23T04:54:13.516Z,46.70
2018-11-23T04:54:44.836Z,46.37
2018-11-23T04:55:15.937Z,47.78
2018-11-23T04:55:47.070Z,45.58
2018-11-23T04:56:18.163Z,46.80
2018-11-23T04:56:49.271Z,44.35
2018-11-23T04:57:20.384Z,46.63
2018-11-23T04:57:53.753Z,45.45
2018-11-23T04:58:22.671Z,47.85
2018-11-23T04:58:53.767Z,45.63
2018-11-23T04:59:24.885Z,47.90
2018-11-23T04:59:55.987Z,48.68
2018-11-23T05:00:27.083Z,51.08
2018-11-23T05:00:58.195Z,48.85
2018-11-23T05:01:29.351Z,42.78
2018-11-23T05:02:00.453Z,47.48
2018-11-23T05:02:31.551Z,47.50
2018-11-23T05:03:02.699Z,49.83
2018-11-23T05:03:33.837Z,52.40
2018-11-23T05:04:04.937Z,52.53
2018-11-23T05:04:36.041Z,44.93
2018-11-23T05:05:07.140Z,45.98
2018-11-23T05:05:38.239Z,47.78
2018-11-23T05:06:09.343Z,43.52
2018-11-23T05:06:40.447Z,47.43
2018-11-23T05:07:11.544Z,43.10
2018-11-23T05:07:42.644Z,47.60
2018-11-23T05:08:13.783Z,50.52
2018-11-23T05:08:44.895Z,46.73
2018-11-23T05:09:15.999Z,46.60
2018-11-23T05:09:47.104Z,42.95
2018-11-23T05:10:18.203Z,44.98
2018-11-23T05:10:49.299Z,46.00
2018-11-23T05:11:20.466Z,45.40
2018-11-23T05:11:51.564Z,41.88
2018-11-23T05:12:22.679Z,41.08
2018-11-23T05:12:53.782Z,43.28
2018-11-23T05:13:24.891Z,42.43
2018-11-23T05:13:55.995Z,40.23
2018-11-23T05:14:27.104Z,38.45
2018-11-23T05:14:58.215Z,45.17
2018-11-23T05:15:29.324Z,39.65
2018-11-23T05:16:01.136Z,41.40
2018-11-23T05:16:32.289Z,39.55
2018-11-23T05:17:03.398Z,41.95
2018-11-23T05:17:35.289Z,42.58
2018-11-23T05:18:06.392Z,42.93
2018-11-23T05:18:37.496Z,42.27
2018-11-23T05:19:08.635Z,44.03
2018-11-23T05:19:39.740Z,49.10
2018-11-23T05:20:10.853Z,48.00
2018-11-23T05:20:41.982Z,47.30
2018-11-23T05:21:13.086Z,43.55
2018-11-23T05:21:44.330Z,43.48
2018-11-23T05:22:15.427Z,43.65
2018-11-23T05:22:46.528Z,50.08
2018-11-23T05:23:17.635Z,44.15
2018-11-23T05:23:48.739Z,44.03
2018-11-23T05:24:20.694Z,44.98
2018-11-23T05:24:51.801Z,46.75
2018-11-23T05:25:22.907Z,50.15
2018-11-23T05:25:55.278Z,43.60
2018-11-23T05:26:26.978Z,47.50
2018-11-23T05:26:58.132Z,49.42
2018-11-23T05:27:29.319Z,51.92
2018-11-23T05:28:00.456Z,42.75
2018-11-23T05:28:31.586Z,52.48
2018-11-23T05:29:03.264Z,48.50
2018-11-23T05:29:34.374Z,47.85
2018-11-23T05:30:05.471Z,50.23
2018-11-23T05:30:36.854Z,50.25
2018-11-23T05:31:08.691Z,53.60
2018-11-23T05:31:39.801Z,49.65
2018-11-23T05:32:10.945Z,49.45
2018-11-23T05:32:42.056Z,55.20
2018-11-23T05:33:13.175Z,50.85
2018-11-23T05:33:44.287Z,54.30
2018-11-23T05:34:15.387Z,48.60
2018-11-23T05:34:46.496Z,49.77
2018-11-23T05:35:17.611Z,53.08
2018-11-23T05:35:48.717Z,48.65
2018-11-23T05:36:19.839Z,46.48
2018-11-23T05:36:50.940Z,52.95
2018-11-23T05:37:22.092Z,50.67
2018-11-23T05:37:53.936Z,51.95
2018-11-23T05:38:25.042Z,47.95
2018-11-23T05:38:56.195Z,53.42
2018-11-23T05:39:27.367Z,56.13
2018-11-23T05:39:58.472Z,51.25
2018-11-23T05:40:29.628Z,55.55
2018-11-23T05:41:00.738Z,54.93
2018-11-23T05:41:31.851Z,57.43
2018-11-23T05:42:03.007Z,55.55
2018-11-23T05:42:34.124Z,56.25
2018-11-23T05:43:05.214Z,58.95
2018-11-23T05:43:36.320Z,60.65
2018-11-23T05:44:07.444Z,57.83
2018-11-23T05:44:38.570Z,61.05
2018-11-23T05:45:09.671Z,62.03
2018-11-23T05:45:40.785Z,56.85
2018-11-23T05:46:11.938Z,63.20
2018-11-23T05:46:43.030Z,61.15
2018-11-23T05:47:14.135Z,54.93
2018-11-23T05:47:45.236Z,57.75
2018-11-23T05:48:16.404Z,56.88
2018-11-23T05:48:47.569Z,52.25
2018-11-23T05:49:18.786Z,58.15
2018-11-23T05:49:49.893Z,59.58
2018-11-23T05:50:20.997Z,56.50
2018-11-23T05:50:52.094Z,60.95
2018-11-23T05:51:23.247Z,59.05
2018-11-23T05:51:54.352Z,55.73
2018-11-23T05:52:25.459Z,52.23
2018-11-23T05:52:56.551Z,52.67
2018-11-23T05:53:27.696Z,54.00
2018-11-23T05:53:58.795Z,49.53
2018-11-23T05:54:29.956Z,57.73
2018-11-23T05:55:01.107Z,54.63
2018-11-23T05:55:32.202Z,53.08
2018-11-23T05:56:03.345Z,56.20
2018-11-23T05:56:34.480Z,58.17
2018-11-23T05:57:05.656Z,62.55
2018-11-23T05:57:36.768Z,58.68
2018-11-23T05:58:07.880Z,57.75
2018-11-23T05:58:38.975Z,60.70
2018-11-23T05:59:10.071Z,58.90
2018-11-23T05:59:41.168Z,57.88
2018-11-23T06:00:12.287Z,62.70
2018-11-23T06:00:43.423Z,62.70
2018-11-23T06:01:14.531Z,63.48
2018-11-23T06:01:45.639Z,56.15
2018-11-23T06:02:16.746Z,61.25
2018-11-23T06:02:47.856Z,55.30
2018-11-23T06:03:18.961Z,61.35
2018-11-23T06:03:50.104Z,57.25
2018-11-23T06:04:21.241Z,59.48
2018-11-23T06:04:52.339Z,67.53
2018-11-23T06:05:23.447Z,63.28
2018-11-23T06:05:54.548Z,61.68
2018-11-23T06:06:26.000Z,63.05
2018-11-23T06:06:56.807Z,69.90
2018-11-23T06:07:27.939Z,58.23
2018-11-23T06:07:59.051Z,64.67
2018-11-23T06:08:30.225Z,66.92
2018-11-23T06:09:01.380Z,66.75
2018-11-23T06:09:32.536Z,65.78
2018-11-23T06:10:03.651Z,62.67
2018-11-23T06:10:34.765Z,63.63
2018-11-23T06:11:05.870Z,72.15
2018-11-23T06:11:36.978Z,66.20
2018-11-23T06:12:08.121Z,65.65
2018-11-23T06:12:39.227Z,64.20
2018-11-23T06:13:10.330Z,65.92
2018-11-23T06:13:41.523Z,69.00
2018-11-23T06:14:12.630Z,67.45
2018-11-23T06:14:43.733Z,66.45
2018-11-23T06:15:14.836Z,66.75
2018-11-23T06:15:45.944Z,70.55
2018-11-23T06:16:17.044Z,66.05
2018-11-23T06:16:48.165Z,65.42
2018-11-23T06:17:19.279Z,66.47
2018-11-23T06:17:50.383Z,62.80
2018-11-23T06:18:21.486Z,65.57
2018-11-23T06:18:52.631Z,64.60
2018-11-23T06:19:23.731Z,61.40
2018-11-23T06:19:54.828Z,67.20
2018-11-23T06:20:25.933Z,66.17
2018-11-23T06:20:57.071Z,64.12
2018-11-23T06:21:28.179Z,63.05
2018-11-23T06:21:59.304Z,60.38
2018-11-23T06:22:32.628Z,68.33
2018-11-23T06:23:03.756Z,67.85
2018-11-23T06:23:34.856Z,64.45
2018-11-23T06:24:05.990Z,64.60
2018-11-23T06:24:37.120Z,66.95
2018-11-23T06:25:08.232Z,70.78
2018-11-23T06:25:39.331Z,69.03
2018-11-23T06:26:10.476Z,70.52
2018-11-23T06:26:41.572Z,69.95
2018-11-23T06:27:12.671Z,66.82
2018-11-23T06:27:43.787Z,59.50
2018-11-23T06:28:14.880Z,58.20
2018-11-23T06:28:45.981Z,69.95
2018-11-23T06:29:17.129Z,62.23
2018-11-23T06:29:48.251Z,60.90
2018-11-23T06:30:19.351Z,69.20
2018-11-23T06:30:50.463Z,65.50
2018-11-23T06:31:21.591Z,65.00
2018-11-23T06:31:52.688Z,62.88
2018-11-23T06:32:23.792Z,66.97
2018-11-23T06:32:54.920Z,63.90
2018-11-23T06:33:26.026Z,70.28
2018-11-23T06:33:57.135Z,71.17
2018-11-23T06:34:28.239Z,71.85
2018-11-23T06:34:59.341Z,75.00
2018-11-23T06:35:30.441Z,67.37
2018-11-23T06:36:01.596Z,73.30
2018-11-23T06:36:32.708Z,70.95
2018-11-23T06:37:03.815Z,69.87
2018-11-23T06:37:34.919Z,68.72
2018-11-23T06:38:06.015Z,76.07
2018-11-23T06:38:37.121Z,72.67
2018-11-23T06:39:08.225Z,72.42
2018-11-23T06:39:40.048Z,72.53
2018-11-23T06:40:12.492Z,73.12
2018-11-23T06:40:43.863Z,72.92
2018-11-23T06:41:19.001Z,55.78